sensor_id;sensor_type;location;lat;lon;timestamp;P1;durP1;ratioP1;P2;durP2;ratioP2
9986;SDS011;5033;46.310;11.214;2023-02-07T00:01:06;9.00;;;8.20;;
9986;SDS011;5033;46.310;11.214;2023-02-07T00:03:33;7.47;;;6.85;;
9986;SDS011;5033;46.310;11.214;2023-02-07T00:06:03;8.30;;;7.70;;
9986;SDS011;5033;46.310;11.214;2023-02-07T00:08:32;7.50;;;6.78;;
9986;SDS011;5033;46.310;11.214;2023-02-07T00:11:02;7.45;;;6.85;;
9986;SDS011;5033;46.310;11.214;2023-02-07T00:13:30;8.30;;;7.60;;
9986;SDS011;5033;46.310;11.214;2023-02-07T00:15:58;8.38;;;7.68;;
9986;SDS011;5033;46.310;11.214;2023-02-07T00:18:26;8.52;;;7.68;;
9986;SDS011;5033;46.310;11.214;2023-02-07T00:20:56;8.35;;;7.50;;
9986;SDS011;5033;46.310;11.214;2023-02-07T00:23:24;8.02;;;7.38;;
9986;SDS011;5033;46.310;11.214;2023-02-07T00:25:51;8.57;;;7.82;;
9986;SDS011;5033;46.310;11.214;2023-02-07T00:28:18;7.97;;;7.20;;
9986;SDS011;5033;46.310;11.214;2023-02-07T00:30:46;8.57;;;7.82;;
9986;SDS011;5033;46.310;11.214;2023-02-07T00:33:14;8.20;;;7.35;;
9986;SDS011;5033;46.310;11.214;2023-02-07T00:35:42;8.75;;;8.13;;
9986;SDS011;5033;46.310;11.214;2023-02-07T00:38:09;6.85;;;6.35;;
9986;SDS011;5033;46.310;11.214;2023-02-07T00:40:36;7.90;;;7.20;;
9986;SDS011;5033;46.310;11.214;2023-02-07T00:43:03;8.10;;;7.40;;
9986;SDS011;5033;46.310;11.214;2023-02-07T00:45:30;7.88;;;7.28;;
9986;SDS011;5033;46.310;11.214;2023-02-07T00:47:57;8.23;;;7.53;;
9986;SDS011;5033;46.310;11.214;2023-02-07T00:50:25;7.95;;;7.25;;
9986;SDS011;5033;46.310;11.214;2023-02-07T00:52:52;7.90;;;7.20;;
9986;SDS011;5033;46.310;11.214;2023-02-07T00:55:19;8.50;;;7.70;;
9986;SDS011;5033;46.310;11.214;2023-02-07T00:57:46;8.63;;;7.80;;
9986;SDS011;5033;46.310;11.214;2023-02-07T01:00:13;8.30;;;7.50;;
9986;SDS011;5033;46.310;11.214;2023-02-07T01:02:41;8.15;;;7.45;;
9986;SDS011;5033;46.310;11.214;2023-02-07T01:05:08;7.93;;;7.32;;
9986;SDS011;5033;46.310;11.214;2023-02-07T01:07:36;7.95;;;7.35;;
9986;SDS011;5033;46.310;11.214;2023-02-07T01:10:04;7.35;;;6.75;;
9986;SDS011;5033;46.310;11.214;2023-02-07T01:12:31;9.13;;;8.32;;
9986;SDS011;5033;46.310;11.214;2023-02-07T01:14:58;8.43;;;7.75;;
9986;SDS011;5033;46.310;11.214;2023-02-07T01:17:26;7.80;;;7.15;;
9986;SDS011;5033;46.310;11.214;2023-02-07T01:19:55;7.88;;;7.28;;
9986;SDS011;5033;46.310;11.214;2023-02-07T01:22:22;8.63;;;7.93;;
9986;SDS011;5033;46.310;11.214;2023-02-07T01:24:52;8.10;;;7.38;;
9986;SDS011;5033;46.310;11.214;2023-02-07T01:27:20;8.40;;;7.80;;
9986;SDS011;5033;46.310;11.214;2023-02-07T01:29:47;8.23;;;7.53;;
9986;SDS011;5033;46.310;11.214;2023-02-07T01:32:14;8.73;;;7.97;;
9986;SDS011;5033;46.310;11.214;2023-02-07T01:34:41;7.78;;;7.18;;
9986;SDS011;5033;46.310;11.214;2023-02-07T01:37:08;8.25;;;7.55;;
9986;SDS011;5033;46.310;11.214;2023-02-07T01:39:35;7.43;;;6.82;;
9986;SDS011;5033;46.310;11.214;2023-02-07T01:42:04;7.70;;;7.00;;
9986;SDS011;5033;46.310;11.214;2023-02-07T01:47:28;8.52;;;7.82;;
9986;SDS011;5033;46.310;11.214;2023-02-07T01:49:56;7.70;;;7.07;;
9986;SDS011;5033;46.310;11.214;2023-02-07T01:52:25;8.82;;;8.00;;
9986;SDS011;5033;46.310;11.214;2023-02-07T01:54:59;8.50;;;7.80;;
9986;SDS011;5033;46.310;11.214;2023-02-07T01:57:31;7.88;;;7.18;;
9986;SDS011;5033;46.310;11.214;2023-02-07T01:59:58;7.40;;;6.90;;
9986;SDS011;5033;46.310;11.214;2023-02-07T02:02:28;8.20;;;7.60;;
9986;SDS011;5033;46.310;11.214;2023-02-07T02:04:59;7.80;;;7.20;;
9986;SDS011;5033;46.310;11.214;2023-02-07T02:07:26;8.30;;;7.57;;
9986;SDS011;5033;46.310;11.214;2023-02-07T02:09:56;8.40;;;7.70;;
9986;SDS011;5033;46.310;11.214;2023-02-07T02:12:26;8.65;;;7.95;;
9986;SDS011;5033;46.310;11.214;2023-02-07T02:15:11;7.78;;;7.10;;
9986;SDS011;5033;46.310;11.214;2023-02-07T02:18:07;8.57;;;7.82;;
9986;SDS011;5033;46.310;11.214;2023-02-07T02:20:59;7.95;;;7.28;;
9986;SDS011;5033;46.310;11.214;2023-02-07T02:23:57;8.20;;;7.43;;
9986;SDS011;5033;46.310;11.214;2023-02-07T02:26:53;8.60;;;7.90;;
9986;SDS011;5033;46.310;11.214;2023-02-07T02:35:29;7.22;;;6.63;;
9986;SDS011;5033;46.310;11.214;2023-02-07T02:38:01;7.45;;;6.93;;
9986;SDS011;5033;46.310;11.214;2023-02-07T02:40:37;7.25;;;6.68;;
9986;SDS011;5033;46.310;11.214;2023-02-07T02:43:08;8.07;;;7.38;;
9986;SDS011;5033;46.310;11.214;2023-02-07T02:45:41;7.40;;;6.88;;
9986;SDS011;5033;46.310;11.214;2023-02-07T02:48:12;7.00;;;6.50;;
9986;SDS011;5033;46.310;11.214;2023-02-07T02:50:40;7.32;;;6.82;;
9986;SDS011;5033;46.310;11.214;2023-02-07T02:53:12;7.50;;;7.00;;
9986;SDS011;5033;46.310;11.214;2023-02-07T02:55:44;7.50;;;6.80;;
9986;SDS011;5033;46.310;11.214;2023-02-07T02:58:34;6.78;;;6.28;;
9986;SDS011;5033;46.310;11.214;2023-02-07T03:01:15;6.55;;;6.05;;
9986;SDS011;5033;46.310;11.214;2023-02-07T03:03:54;6.90;;;6.40;;
9986;SDS011;5033;46.310;11.214;2023-02-07T03:06:34;6.78;;;6.28;;
9986;SDS011;5033;46.310;11.214;2023-02-07T03:09:15;9.15;;;7.25;;
9986;SDS011;5033;46.310;11.214;2023-02-07T03:11:50;7.30;;;6.68;;
9986;SDS011;5033;46.310;11.214;2023-02-07T03:14:24;7.00;;;6.40;;
9986;SDS011;5033;46.310;11.214;2023-02-07T03:16:57;6.38;;;5.88;;
9986;SDS011;5033;46.310;11.214;2023-02-07T03:19:34;7.00;;;6.50;;
9986;SDS011;5033;46.310;11.214;2023-02-07T03:22:07;7.07;;;6.57;;
9986;SDS011;5033;46.310;11.214;2023-02-07T03:24:38;7.15;;;6.63;;
9986;SDS011;5033;46.310;11.214;2023-02-07T03:27:10;6.63;;;6.13;;
9986;SDS011;5033;46.310;11.214;2023-02-07T03:29:40;7.32;;;6.72;;
9986;SDS011;5033;46.310;11.214;2023-02-07T03:32:11;7.43;;;6.82;;
9986;SDS011;5033;46.310;11.214;2023-02-07T03:34:42;7.25;;;6.75;;
9986;SDS011;5033;46.310;11.214;2023-02-07T03:37:14;6.90;;;6.40;;
9986;SDS011;5033;46.310;11.214;2023-02-07T03:39:44;7.05;;;6.55;;
9986;SDS011;5033;46.310;11.214;2023-02-07T03:42:14;8.05;;;7.38;;
9986;SDS011;5033;46.310;11.214;2023-02-07T03:44:48;6.60;;;6.10;;
9986;SDS011;5033;46.310;11.214;2023-02-07T03:47:18;7.63;;;6.93;;
9986;SDS011;5033;46.310;11.214;2023-02-07T03:49:47;7.22;;;6.63;;
9986;SDS011;5033;46.310;11.214;2023-02-07T03:52:14;7.15;;;6.55;;
9986;SDS011;5033;46.310;11.214;2023-02-07T03:54:41;7.35;;;6.75;;
9986;SDS011;5033;46.310;11.214;2023-02-07T03:57:08;7.55;;;6.95;;
9986;SDS011;5033;46.310;11.214;2023-02-07T03:59:35;7.80;;;7.18;;
9986;SDS011;5033;46.310;11.214;2023-02-07T04:02:02;7.13;;;6.55;;
9986;SDS011;5033;46.310;11.214;2023-02-07T04:04:29;6.60;;;6.03;;
9986;SDS011;5033;46.310;11.214;2023-02-07T04:06:58;7.13;;;6.53;;
9986;SDS011;5033;46.310;11.214;2023-02-07T04:09:29;7.40;;;6.80;;
9986;SDS011;5033;46.310;11.214;2023-02-07T04:11:56;7.70;;;7.10;;
9986;SDS011;5033;46.310;11.214;2023-02-07T04:14:22;7.22;;;6.68;;
9986;SDS011;5033;46.310;11.214;2023-02-07T04:16:50;7.22;;;6.72;;
9986;SDS011;5033;46.310;11.214;2023-02-07T04:19:17;6.80;;;6.30;;
9986;SDS011;5033;46.310;11.214;2023-02-07T04:21:44;7.40;;;6.80;;
9986;SDS011;5033;46.310;11.214;2023-02-07T04:24:12;7.90;;;7.15;;
9986;SDS011;5033;46.310;11.214;2023-02-07T04:26:39;7.35;;;6.85;;
9986;SDS011;5033;46.310;11.214;2023-02-07T04:29:06;7.43;;;6.82;;
9986;SDS011;5033;46.310;11.214;2023-02-07T04:31:33;7.13;;;6.63;;
9986;SDS011;5033;46.310;11.214;2023-02-07T04:34:01;6.53;;;5.97;;
9986;SDS011;5033;46.310;11.214;2023-02-07T04:36:29;7.03;;;6.53;;
9986;SDS011;5033;46.310;11.214;2023-02-07T04:38:56;6.70;;;6.20;;
9986;SDS011;5033;46.310;11.214;2023-02-07T04:41:24;7.63;;;7.03;;
9986;SDS011;5033;46.310;11.214;2023-02-07T04:43:51;8.20;;;7.50;;
9986;SDS011;5033;46.310;11.214;2023-02-07T04:46:18;7.68;;;7.07;;
9986;SDS011;5033;46.310;11.214;2023-02-07T04:48:46;7.10;;;6.50;;
9986;SDS011;5033;46.310;11.214;2023-02-07T04:51:13;7.63;;;7.03;;
9986;SDS011;5033;46.310;11.214;2023-02-07T04:53:41;7.65;;;7.05;;
9986;SDS011;5033;46.310;11.214;2023-02-07T04:56:08;7.22;;;6.63;;
9986;SDS011;5033;46.310;11.214;2023-02-07T04:58:36;6.90;;;6.30;;
9986;SDS011;5033;46.310;11.214;2023-02-07T05:01:04;6.80;;;6.30;;
9986;SDS011;5033;46.310;11.214;2023-02-07T05:03:31;6.82;;;6.25;;
9986;SDS011;5033;46.310;11.214;2023-02-07T05:05:59;7.38;;;6.88;;
9986;SDS011;5033;46.310;11.214;2023-02-07T05:08:26;7.22;;;6.57;;
9986;SDS011;5033;46.310;11.214;2023-02-07T05:10:53;7.72;;;7.03;;
9986;SDS011;5033;46.310;11.214;2023-02-07T05:13:20;8.27;;;7.43;;
9986;SDS011;5033;46.310;11.214;2023-02-07T05:15:49;7.18;;;6.68;;
9986;SDS011;5033;46.310;11.214;2023-02-07T05:18:16;7.78;;;7.18;;
9986;SDS011;5033;46.310;11.214;2023-02-07T05:20:43;7.53;;;6.93;;
9986;SDS011;5033;46.310;11.214;2023-02-07T05:23:10;7.88;;;7.28;;
9986;SDS011;5033;46.310;11.214;2023-02-07T05:25:39;7.43;;;6.82;;
9986;SDS011;5033;46.310;11.214;2023-02-07T05:28:07;7.80;;;7.20;;
9986;SDS011;5033;46.310;11.214;2023-02-07T05:30:34;7.65;;;7.05;;
9986;SDS011;5033;46.310;11.214;2023-02-07T05:33:03;6.78;;;6.28;;
9986;SDS011;5033;46.310;11.214;2023-02-07T05:35:30;7.43;;;6.93;;
9986;SDS011;5033;46.310;11.214;2023-02-07T05:37:57;8.27;;;7.65;;
9986;SDS011;5033;46.310;11.214;2023-02-07T05:40:24;7.40;;;6.78;;
9986;SDS011;5033;46.310;11.214;2023-02-07T05:42:52;7.90;;;7.20;;
9986;SDS011;5033;46.310;11.214;2023-02-07T05:45:19;7.70;;;6.97;;
9986;SDS011;5033;46.310;11.214;2023-02-07T05:47:46;7.57;;;6.97;;
9986;SDS011;5033;46.310;11.214;2023-02-07T05:50:15;7.43;;;6.90;;
9986;SDS011;5033;46.310;11.214;2023-02-07T05:52:43;7.43;;;6.82;;
9986;SDS011;5033;46.310;11.214;2023-02-07T05:55:10;7.53;;;6.93;;
9986;SDS011;5033;46.310;11.214;2023-02-07T05:57:37;7.43;;;6.82;;
9986;SDS011;5033;46.310;11.214;2023-02-07T06:00:05;7.10;;;6.60;;
9986;SDS011;5033;46.310;11.214;2023-02-07T06:02:34;8.30;;;7.50;;
9986;SDS011;5033;46.310;11.214;2023-02-07T06:05:03;7.00;;;6.50;;
9986;SDS011;5033;46.310;11.214;2023-02-07T06:07:32;7.65;;;7.05;;
9986;SDS011;5033;46.310;11.214;2023-02-07T06:09:59;8.00;;;7.30;;
9986;SDS011;5033;46.310;11.214;2023-02-07T06:12:26;7.30;;;6.70;;
9986;SDS011;5033;46.310;11.214;2023-02-07T06:14:53;7.10;;;6.60;;
9986;SDS011;5033;46.310;11.214;2023-02-07T06:17:20;8.23;;;7.50;;
9986;SDS011;5033;46.310;11.214;2023-02-07T06:19:48;7.78;;;7.18;;
9986;SDS011;5033;46.310;11.214;2023-02-07T06:22:15;7.60;;;7.00;;
9986;SDS011;5033;46.310;11.214;2023-02-07T06:24:44;7.50;;;6.90;;
9986;SDS011;5033;46.310;11.214;2023-02-07T06:27:11;7.95;;;7.25;;
9986;SDS011;5033;46.310;11.214;2023-02-07T06:29:38;7.60;;;6.90;;
9986;SDS011;5033;46.310;11.214;2023-02-07T06:32:05;7.78;;;7.07;;
9986;SDS011;5033;46.310;11.214;2023-02-07T06:34:32;7.95;;;7.25;;
9986;SDS011;5033;46.310;11.214;2023-02-07T06:36:59;7.65;;;6.97;;
9986;SDS011;5033;46.310;11.214;2023-02-07T06:39:26;8.07;;;7.47;;
9986;SDS011;5033;46.310;11.214;2023-02-07T06:41:55;8.02;;;7.20;;
9986;SDS011;5033;46.310;11.214;2023-02-07T06:44:22;7.97;;;7.38;;
9986;SDS011;5033;46.310;11.214;2023-02-07T06:46:49;8.50;;;7.80;;
9986;SDS011;5033;46.310;11.214;2023-02-07T06:49:16;7.20;;;6.68;;
9986;SDS011;5033;46.310;11.214;2023-02-07T06:51:43;8.02;;;7.45;;
9986;SDS011;5033;46.310;11.214;2023-02-07T06:54:10;7.43;;;6.82;;
9986;SDS011;5033;46.310;11.214;2023-02-07T06:56:37;7.65;;;7.05;;
9986;SDS011;5033;46.310;11.214;2023-02-07T06:59:06;7.55;;;6.95;;
9986;SDS011;5033;46.310;11.214;2023-02-07T07:01:33;7.68;;;7.07;;
9986;SDS011;5033;46.310;11.214;2023-02-07T07:04:00;9.18;;;8.38;;
9986;SDS011;5033;46.310;11.214;2023-02-07T07:06:27;8.93;;;8.13;;
9986;SDS011;5033;46.310;11.214;2023-02-07T07:08:55;9.38;;;8.57;;
9986;SDS011;5033;46.310;11.214;2023-02-07T07:11:23;8.40;;;7.70;;
9986;SDS011;5033;46.310;11.214;2023-02-07T07:13:50;8.90;;;7.97;;
9986;SDS011;5033;46.310;11.214;2023-02-07T07:16:19;8.00;;;7.40;;
9986;SDS011;5033;46.310;11.214;2023-02-07T07:18:46;7.85;;;7.15;;
9986;SDS011;5033;46.310;11.214;2023-02-07T07:21:13;7.80;;;7.20;;
9986;SDS011;5033;46.310;11.214;2023-02-07T07:23:40;7.68;;;7.07;;
9986;SDS011;5033;46.310;11.214;2023-02-07T07:26:07;7.55;;;6.82;;
9986;SDS011;5033;46.310;11.214;2023-02-07T07:28:34;6.72;;;6.22;;
9986;SDS011;5033;46.310;11.214;2023-02-07T07:31:02;7.05;;;6.45;;
9986;SDS011;5033;46.310;11.214;2023-02-07T07:33:32;7.47;;;6.90;;
9986;SDS011;5033;46.310;11.214;2023-02-07T07:36:00;7.72;;;7.13;;
9986;SDS011;5033;46.310;11.214;2023-02-07T07:38:27;7.72;;;7.13;;
9986;SDS011;5033;46.310;11.214;2023-02-07T07:40:55;8.90;;;8.02;;
9986;SDS011;5033;46.310;11.214;2023-02-07T07:43:22;8.18;;;7.47;;
9986;SDS011;5033;46.310;11.214;2023-02-07T07:45:50;8.48;;;7.68;;
9986;SDS011;5033;46.310;11.214;2023-02-07T07:48:19;8.57;;;7.78;;
9986;SDS011;5033;46.310;11.214;2023-02-07T07:50:48;7.32;;;6.72;;
9986;SDS011;5033;46.310;11.214;2023-02-07T07:53:15;8.00;;;7.30;;
9986;SDS011;5033;46.310;11.214;2023-02-07T07:55:47;8.77;;;7.97;;
9986;SDS011;5033;46.310;11.214;2023-02-07T07:58:15;7.25;;;6.65;;
9986;SDS011;5033;46.310;11.214;2023-02-07T08:00:42;7.03;;;6.40;;
9986;SDS011;5033;46.310;11.214;2023-02-07T08:03:09;7.38;;;6.72;;
9986;SDS011;5033;46.310;11.214;2023-02-07T08:05:36;6.85;;;6.25;;
9986;SDS011;5033;46.310;11.214;2023-02-07T08:08:05;6.65;;;6.05;;
9986;SDS011;5033;46.310;11.214;2023-02-07T08:10:33;8.60;;;6.68;;
9986;SDS011;5033;46.310;11.214;2023-02-07T08:13:00;7.03;;;6.30;;
9986;SDS011;5033;46.310;11.214;2023-02-07T08:15:27;6.63;;;6.00;;
9986;SDS011;5033;46.310;11.214;2023-02-07T08:17:54;6.85;;;6.15;;
9986;SDS011;5033;46.310;11.214;2023-02-07T08:20:21;7.82;;;5.72;;
9986;SDS011;5033;46.310;11.214;2023-02-07T08:22:49;6.00;;;5.53;;
9986;SDS011;5033;46.310;11.214;2023-02-07T08:25:18;5.97;;;5.45;;
9986;SDS011;5033;46.310;11.214;2023-02-07T08:27:45;6.10;;;5.60;;
9986;SDS011;5033;46.310;11.214;2023-02-07T08:30:12;6.63;;;5.38;;
9986;SDS011;5033;46.310;11.214;2023-02-07T08:32:41;5.75;;;5.25;;
9986;SDS011;5033;46.310;11.214;2023-02-07T08:35:08;5.88;;;5.38;;
9986;SDS011;5033;46.310;11.214;2023-02-07T08:37:35;5.97;;;5.38;;
9986;SDS011;5033;46.310;11.214;2023-02-07T08:40:03;6.53;;;5.80;;
9986;SDS011;5033;46.310;11.214;2023-02-07T08:42:33;6.00;;;5.50;;
9986;SDS011;5033;46.310;11.214;2023-02-07T08:45:00;6.28;;;5.75;;
9986;SDS011;5033;46.310;11.214;2023-02-07T08:47:28;6.30;;;5.78;;
9986;SDS011;5033;46.310;11.214;2023-02-07T08:49:55;5.25;;;4.78;;
9986;SDS011;5033;46.310;11.214;2023-02-07T08:52:22;5.90;;;5.40;;
9986;SDS011;5033;46.310;11.214;2023-02-07T08:54:49;5.95;;;5.45;;
9986;SDS011;5033;46.310;11.214;2023-02-07T08:57:16;6.50;;;5.90;;
9986;SDS011;5033;46.310;11.214;2023-02-07T08:59:48;5.68;;;5.18;;
9986;SDS011;5033;46.310;11.214;2023-02-07T09:02:15;10.77;;;6.28;;
9986;SDS011;5033;46.310;11.214;2023-02-07T09:04:42;7.15;;;6.47;;
9986;SDS011;5033;46.310;11.214;2023-02-07T09:07:09;6.55;;;5.82;;
9986;SDS011;5033;46.310;11.214;2023-02-07T09:09:37;6.25;;;5.75;;
9986;SDS011;5033;46.310;11.214;2023-02-07T09:12:04;6.90;;;6.03;;
9986;SDS011;5033;46.310;11.214;2023-02-07T09:14:32;6.85;;;6.25;;
9986;SDS011;5033;46.310;11.214;2023-02-07T09:17:00;6.32;;;5.72;;
9986;SDS011;5033;46.310;11.214;2023-02-07T09:19:28;5.90;;;5.38;;
9986;SDS011;5033;46.310;11.214;2023-02-07T09:21:55;6.45;;;5.85;;
9986;SDS011;5033;46.310;11.214;2023-02-07T09:24:22;6.40;;;5.80;;
9986;SDS011;5033;46.310;11.214;2023-02-07T09:26:49;6.70;;;5.97;;
9986;SDS011;5033;46.310;11.214;2023-02-07T09:29:16;5.57;;;5.18;;
9986;SDS011;5033;46.310;11.214;2023-02-07T09:31:45;6.32;;;5.55;;
9986;SDS011;5033;46.310;11.214;2023-02-07T09:34:13;6.13;;;5.55;;
9986;SDS011;5033;46.310;11.214;2023-02-07T09:36:41;5.85;;;5.35;;
9986;SDS011;5033;46.310;11.214;2023-02-07T09:39:09;6.43;;;5.82;;
9986;SDS011;5033;46.310;11.214;2023-02-07T09:41:38;7.68;;;6.50;;
9986;SDS011;5033;46.310;11.214;2023-02-07T09:44:11;6.60;;;6.10;;
9986;SDS011;5033;46.310;11.214;2023-02-07T09:46:43;7.05;;;6.30;;
9986;SDS011;5033;46.310;11.214;2023-02-07T09:49:21;6.80;;;6.20;;
9986;SDS011;5033;46.310;11.214;2023-02-07T09:51:55;6.53;;;5.82;;
9986;SDS011;5033;46.310;11.214;2023-02-07T09:54:23;5.65;;;5.25;;
9986;SDS011;5033;46.310;11.214;2023-02-07T09:56:55;6.50;;;5.85;;
9986;SDS011;5033;46.310;11.214;2023-02-07T09:59:26;6.80;;;6.22;;
9986;SDS011;5033;46.310;11.214;2023-02-07T10:02:04;8.35;;;6.20;;
9986;SDS011;5033;46.310;11.214;2023-02-07T10:04:45;6.45;;;5.95;;
9986;SDS011;5033;46.310;11.214;2023-02-07T10:07:14;6.60;;;5.90;;
9986;SDS011;5033;46.310;11.214;2023-02-07T10:09:41;7.28;;;5.70;;
9986;SDS011;5033;46.310;11.214;2023-02-07T10:12:14;6.53;;;6.00;;
9986;SDS011;5033;46.310;11.214;2023-02-07T10:14:59;8.15;;;5.97;;
9986;SDS011;5033;46.310;11.214;2023-02-07T10:17:48;7.05;;;6.30;;
9986;SDS011;5033;46.310;11.214;2023-02-07T10:20:33;7.38;;;6.68;;
9986;SDS011;5033;46.310;11.214;2023-02-07T10:23:08;7.20;;;6.50;;
9986;SDS011;5033;46.310;11.214;2023-02-07T10:25:50;6.63;;;5.88;;
9986;SDS011;5033;46.310;11.214;2023-02-07T10:28:38;7.45;;;6.10;;
9986;SDS011;5033;46.310;11.214;2023-02-07T10:31:15;7.18;;;6.57;;
9986;SDS011;5033;46.310;11.214;2023-02-07T10:33:46;6.30;;;5.80;;
9986;SDS011;5033;46.310;11.214;2023-02-07T10:36:16;6.53;;;5.93;;
9986;SDS011;5033;46.310;11.214;2023-02-07T10:38:45;6.85;;;5.63;;
9986;SDS011;5033;46.310;11.214;2023-02-07T10:41:19;5.15;;;4.75;;
9986;SDS011;5033;46.310;11.214;2023-02-07T10:43:52;5.97;;;5.38;;
9986;SDS011;5033;46.310;11.214;2023-02-07T10:46:20;5.60;;;5.00;;
9986;SDS011;5033;46.310;11.214;2023-02-07T10:48:48;5.85;;;5.15;;
9986;SDS011;5033;46.310;11.214;2023-02-07T10:51:20;5.63;;;5.13;;
9986;SDS011;5033;46.310;11.214;2023-02-07T10:54:00;5.18;;;4.78;;
9986;SDS011;5033;46.310;11.214;2023-02-07T10:56:32;5.68;;;5.22;;
9986;SDS011;5033;46.310;11.214;2023-02-07T10:59:03;7.32;;;5.38;;
9986;SDS011;5033;46.310;11.214;2023-02-07T11:01:30;5.28;;;4.88;;
9986;SDS011;5033;46.310;11.214;2023-02-07T11:03:58;5.45;;;5.00;;
9986;SDS011;5033;46.310;11.214;2023-02-07T11:06:28;5.63;;;5.22;;
9986;SDS011;5033;46.310;11.214;2023-02-07T11:09:09;5.15;;;4.75;;
9986;SDS011;5033;46.310;11.214;2023-02-07T11:11:38;6.05;;;5.55;;
9986;SDS011;5033;46.310;11.214;2023-02-07T11:14:09;6.38;;;5.70;;
9986;SDS011;5033;46.310;11.214;2023-02-07T11:16:45;6.30;;;5.70;;
9986;SDS011;5033;46.310;11.214;2023-02-07T11:19:14;6.15;;;5.65;;
9986;SDS011;5033;46.310;11.214;2023-02-07T11:21:46;5.40;;;4.97;;
9986;SDS011;5033;46.310;11.214;2023-02-07T11:24:16;6.55;;;5.88;;
9986;SDS011;5033;46.310;11.214;2023-02-07T11:26:55;5.60;;;5.10;;
9986;SDS011;5033;46.310;11.214;2023-02-07T11:29:26;6.10;;;5.60;;
9986;SDS011;5033;46.310;11.214;2023-02-07T11:31:54;6.15;;;5.65;;
9986;SDS011;5033;46.310;11.214;2023-02-07T11:34:30;6.07;;;5.57;;
9986;SDS011;5033;46.310;11.214;2023-02-07T11:37:18;6.25;;;5.65;;
9986;SDS011;5033;46.310;11.214;2023-02-07T11:39:49;6.35;;;5.75;;
9986;SDS011;5033;46.310;11.214;2023-02-07T11:42:19;5.95;;;5.50;;
9986;SDS011;5033;46.310;11.214;2023-02-07T11:44:49;6.18;;;5.60;;
9986;SDS011;5033;46.310;11.214;2023-02-07T11:47:18;5.50;;;5.00;;
9986;SDS011;5033;46.310;11.214;2023-02-07T11:49:48;6.90;;;6.20;;
9986;SDS011;5033;46.310;11.214;2023-02-07T11:52:18;6.30;;;5.80;;
9986;SDS011;5033;46.310;11.214;2023-02-07T11:54:49;6.35;;;5.85;;
9986;SDS011;5033;46.310;11.214;2023-02-07T11:57:19;6.13;;;5.53;;
9986;SDS011;5033;46.310;11.214;2023-02-07T11:59:49;5.70;;;5.20;;
9986;SDS011;5033;46.310;11.214;2023-02-07T12:02:26;5.53;;;5.03;;
9986;SDS011;5033;46.310;11.214;2023-02-07T12:05:06;6.30;;;5.70;;
9986;SDS011;5033;46.310;11.214;2023-02-07T12:07:40;5.53;;;5.13;;
9986;SDS011;5033;46.310;11.214;2023-02-07T12:10:10;5.50;;;5.10;;
9986;SDS011;5033;46.310;11.214;2023-02-07T12:12:46;5.60;;;5.10;;
9986;SDS011;5033;46.310;11.214;2023-02-07T12:15:16;5.82;;;5.30;;
9986;SDS011;5033;46.310;11.214;2023-02-07T12:17:50;6.20;;;5.60;;
9986;SDS011;5033;46.310;11.214;2023-02-07T12:20:23;5.65;;;5.15;;
9986;SDS011;5033;46.310;11.214;2023-02-07T12:22:55;5.82;;;5.32;;
9986;SDS011;5033;46.310;11.214;2023-02-07T12:25:28;5.60;;;5.10;;
9986;SDS011;5033;46.310;11.214;2023-02-07T12:28:00;6.22;;;5.70;;
9986;SDS011;5033;46.310;11.214;2023-02-07T12:30:40;5.85;;;5.13;;
9986;SDS011;5033;46.310;11.214;2023-02-07T12:33:11;5.50;;;5.10;;
9986;SDS011;5033;46.310;11.214;2023-02-07T12:35:45;6.03;;;5.53;;
9986;SDS011;5033;46.310;11.214;2023-02-07T12:38:22;6.20;;;5.60;;
9986;SDS011;5033;46.310;11.214;2023-02-07T12:40:52;5.47;;;5.07;;
9986;SDS011;5033;46.310;11.214;2023-02-07T12:43:23;5.63;;;5.13;;
9986;SDS011;5033;46.310;11.214;2023-02-07T12:46:04;6.25;;;5.32;;
9986;SDS011;5033;46.310;11.214;2023-02-07T12:48:54;5.97;;;5.38;;
9986;SDS011;5033;46.310;11.214;2023-02-07T12:51:41;5.95;;;5.45;;
9986;SDS011;5033;46.310;11.214;2023-02-07T12:54:24;7.28;;;6.00;;
9986;SDS011;5033;46.310;11.214;2023-02-07T12:56:59;6.20;;;5.70;;
9986;SDS011;5033;46.310;11.214;2023-02-07T12:59:35;5.55;;;5.05;;
9986;SDS011;5033;46.310;11.214;2023-02-07T13:02:18;5.95;;;5.45;;
9986;SDS011;5033;46.310;11.214;2023-02-07T13:07:52;5.20;;;4.80;;
9986;SDS011;5033;46.310;11.214;2023-02-07T13:10:31;6.22;;;5.72;;
9986;SDS011;5033;46.310;11.214;2023-02-07T13:13:05;4.60;;;4.22;;
9986;SDS011;5033;46.310;11.214;2023-02-07T13:15:40;6.18;;;5.57;;
9986;SDS011;5033;46.310;11.214;2023-02-07T13:18:14;6.00;;;5.43;;
9986;SDS011;5033;46.310;11.214;2023-02-07T13:20:50;5.72;;;5.22;;
9986;SDS011;5033;46.310;11.214;2023-02-07T13:23:29;6.05;;;5.60;;
9986;SDS011;5033;46.310;11.214;2023-02-07T13:26:00;6.10;;;5.55;;
9986;SDS011;5033;46.310;11.214;2023-02-07T13:28:34;5.75;;;5.25;;
9986;SDS011;5033;46.310;11.214;2023-02-07T13:31:06;5.68;;;5.18;;
9986;SDS011;5033;46.310;11.214;2023-02-07T13:33:37;5.20;;;4.80;;
9986;SDS011;5033;46.310;11.214;2023-02-07T13:36:09;5.45;;;5.05;;
9986;SDS011;5033;46.310;11.214;2023-02-07T13:38:45;5.45;;;5.05;;
9986;SDS011;5033;46.310;11.214;2023-02-07T13:41:38;5.05;;;4.65;;
9986;SDS011;5033;46.310;11.214;2023-02-07T13:44:15;5.75;;;5.25;;
9986;SDS011;5033;46.310;11.214;2023-02-07T13:46:58;5.72;;;5.22;;
9986;SDS011;5033;46.310;11.214;2023-02-07T13:49:56;5.43;;;5.03;;
9986;SDS011;5033;46.310;11.214;2023-02-07T13:52:29;5.43;;;5.03;;
9986;SDS011;5033;46.310;11.214;2023-02-07T13:55:01;5.80;;;5.30;;
9986;SDS011;5033;46.310;11.214;2023-02-07T13:57:41;5.70;;;5.30;;
9986;SDS011;5033;46.310;11.214;2023-02-07T14:00:27;5.40;;;4.60;;
9986;SDS011;5033;46.310;11.214;2023-02-07T14:02:56;4.90;;;4.50;;
9986;SDS011;5033;46.310;11.214;2023-02-07T14:05:27;4.97;;;4.57;;
9986;SDS011;5033;46.310;11.214;2023-02-07T14:07:57;4.88;;;4.47;;
9986;SDS011;5033;46.310;11.214;2023-02-07T14:13:22;5.38;;;4.88;;
9986;SDS011;5033;46.310;11.214;2023-02-07T14:15:56;4.65;;;4.25;;
9986;SDS011;5033;46.310;11.214;2023-02-07T14:18:33;5.40;;;5.00;;
9986;SDS011;5033;46.310;11.214;2023-02-07T14:21:23;5.30;;;4.90;;
9986;SDS011;5033;46.310;11.214;2023-02-07T14:26:50;5.70;;;5.20;;
9986;SDS011;5033;46.310;11.214;2023-02-07T14:32:29;5.80;;;5.30;;
9986;SDS011;5033;46.310;11.214;2023-02-07T14:35:03;5.43;;;5.03;;
9986;SDS011;5033;46.310;11.214;2023-02-07T14:37:42;5.88;;;5.38;;
9986;SDS011;5033;46.310;11.214;2023-02-07T14:40:18;5.78;;;5.38;;
9986;SDS011;5033;46.310;11.214;2023-02-07T14:42:54;5.70;;;5.20;;
9986;SDS011;5033;46.310;11.214;2023-02-07T14:45:23;5.00;;;4.60;;
9986;SDS011;5033;46.310;11.214;2023-02-07T14:47:55;5.10;;;4.70;;
9986;SDS011;5033;46.310;11.214;2023-02-07T14:50:22;5.15;;;4.75;;
9986;SDS011;5033;46.310;11.214;2023-02-07T14:52:54;4.70;;;4.30;;
9986;SDS011;5033;46.310;11.214;2023-02-07T14:55:26;4.53;;;4.18;;
9986;SDS011;5033;46.310;11.214;2023-02-07T14:57:59;4.82;;;4.43;;
9986;SDS011;5033;46.310;11.214;2023-02-07T15:00:30;4.28;;;3.88;;
9986;SDS011;5033;46.310;11.214;2023-02-07T15:03:09;4.30;;;3.90;;
9986;SDS011;5033;46.310;11.214;2023-02-07T15:05:46;4.22;;;3.83;;
9986;SDS011;5033;46.310;11.214;2023-02-07T15:08:17;4.68;;;4.22;;
9986;SDS011;5033;46.310;11.214;2023-02-07T15:10:50;4.32;;;4.03;;
9986;SDS011;5033;46.310;11.214;2023-02-07T15:13:22;4.65;;;4.30;;
9986;SDS011;5033;46.310;11.214;2023-02-07T15:15:52;4.72;;;4.32;;
9986;SDS011;5033;46.310;11.214;2023-02-07T15:18:24;6.38;;;5.15;;
9986;SDS011;5033;46.310;11.214;2023-02-07T15:20:55;5.22;;;4.53;;
9986;SDS011;5033;46.310;11.214;2023-02-07T15:23:23;4.95;;;4.55;;
9986;SDS011;5033;46.310;11.214;2023-02-07T15:25:53;4.82;;;4.43;;
9986;SDS011;5033;46.310;11.214;2023-02-07T15:28:21;4.68;;;4.30;;
9986;SDS011;5033;46.310;11.214;2023-02-07T15:30:57;4.68;;;4.28;;
9986;SDS011;5033;46.310;11.214;2023-02-07T15:33:28;5.18;;;4.68;;
9986;SDS011;5033;46.310;11.214;2023-02-07T15:36:01;4.78;;;4.38;;
9986;SDS011;5033;46.310;11.214;2023-02-07T15:38:29;4.10;;;3.80;;
9986;SDS011;5033;46.310;11.214;2023-02-07T15:40:56;4.80;;;4.40;;
9986;SDS011;5033;46.310;11.214;2023-02-07T15:43:28;4.57;;;4.18;;